Time;durP1;ratioP1;P1;durP2;ratioP2;P2;SDS_P1;SDS_P2;PMS_P1;PMS_P2;Temp;Humidity;BMP_temperature;BMP_pressure;BME280_temperature;BME280_humidity;BME280_pressure;Samples;Min_cycle;Max_cycle;Signal;HPM_P1;HPM_P2
2024/03/14 00:02:20;;;;;;;42.90;18.40;;;;;;;;;;7350180;19;20723;-44
2024/03/14 00:04:49;;;;;;;72.38;28.48;;;;;;;;;;7328727;19;20320;-44
2024/03/14 00:07:22;;;;;;;43.83;19.80;;;;;;;;;;7349474;19;20432;-44
2024/03/14 00:09:51;;;;;;;50.42;21.40;;;;;;;;;;7327937;19;20830;-46
2024/03/14 00:12:23;;;;;;;57.45;22.73;;;;;;;;;;7351040;19;20875;-44
2024/03/14 00:14:52;;;;;;;52.47;22.30;;;;;;;;;;7328493;19;20332;-45
2024/03/14 00:17:22;;;;;;;42.63;18.80;;;;;;;;;;7350480;19;20364;-43
2024/03/14 00:19:53;;;;;;;41.33;17.70;;;;;;;;;;7326807;19;20692;-50
2024/03/14 00:22:22;;;;;;;43.97;17.75;;;;;;;;;;7349670;19;20331;-47
2024/03/14 00:24:51;;;;;;;42.73;19.70;;;;;;;;;;7327562;19;20392;-45
2024/03/14 00:27:24;;;;;;;37.97;16.88;;;;;;;;;;7349637;19;20368;-44
2024/03/14 00:29:55;;;;;;;44.03;19.00;;;;;;;;;;7326166;19;20400;-45
2024/03/14 00:32:26;;;;;;;44.22;19.40;;;;;;;;;;7350567;19;20361;-44
2024/03/14 00:34:56;;;;;;;51.83;21.15;;;;;;;;;;7328295;19;20327;-47
2024/03/14 00:37:25;;;;;;;42.42;18.50;;;;;;;;;;7350660;19;20365;-42
2024/03/14 00:39:55;;;;;;;45.38;19.50;;;;;;;;;;7326737;19;20416;-43
2024/03/14 00:42:27;;;;;;;50.30;20.27;;;;;;;;;;7349548;19;20329;-49
2024/03/14 00:44:58;;;;;;;43.05;18.73;;;;;;;;;;7327900;19;20338;-42
2024/03/14 00:47:27;;;;;;;47.78;20.70;;;;;;;;;;7347529;19;20630;-43
2024/03/14 00:49:57;;;;;;;51.10;19.35;;;;;;;;;;7325865;19;20333;-43
2024/03/14 00:52:27;;;;;;;43.53;18.67;;;;;;;;;;7348738;19;20325;-45
2024/03/14 00:54:56;;;;;;;48.75;20.73;;;;;;;;;;7327529;19;20332;-42
2024/03/14 00:57:28;;;;;;;63.03;24.92;;;;;;;;;;7348542;19;20352;-49
2024/03/14 00:59:58;;;;;;;50.85;20.27;;;;;;;;;;7323724;19;20333;-42
2024/03/14 01:02:27;;;;;;;49.92;21.42;;;;;;;;;;7348236;19;20693;-43
2024/03/14 01:04:57;;;;;;;51.65;20.15;;;;;;;;;;7325507;19;20430;-46
2024/03/14 01:07:27;;;;;;;50.70;21.77;;;;;;;;;;7347990;19;20381;-42
2024/03/14 01:09:56;;;;;;;53.13;22.55;;;;;;;;;;7326516;19;20340;-45
2024/03/14 01:12:28;;;;;;;54.63;23.17;;;;;;;;;;7348385;19;20325;-43
2024/03/14 01:14:58;;;;;;;47.83;20.37;;;;;;;;;;7327367;19;20337;-48
2024/03/14 01:17:27;;;;;;;51.83;20.08;;;;;;;;;;7347821;19;20394;-45
2024/03/14 01:19:57;;;;;;;59.60;24.40;;;;;;;;;;7325855;19;20808;-45
2024/03/14 01:22:26;;;;;;;55.78;22.10;;;;;;;;;;7348135;19;20400;-43
2024/03/14 01:24:55;;;;;;;49.10;21.40;;;;;;;;;;7326330;19;20333;-47
2024/03/14 01:27:26;;;;;;;52.00;22.13;;;;;;;;;;7347665;19;20372;-42
2024/03/14 01:29:58;;;;;;;66.53;26.45;;;;;;;;;;7325028;19;20332;-42
2024/03/14 01:32:28;;;;;;;47.83;20.60;;;;;;;;;;7348184;19;20885;-44
2024/03/14 01:34:58;;;;;;;55.25;24.52;;;;;;;;;;7325815;19;20715;-47
2024/03/14 01:37:28;;;;;;;55.90;23.00;;;;;;;;;;7347159;19;20367;-44
2024/03/14 01:39:57;;;;;;;49.28;21.27;;;;;;;;;;7325233;19;20344;-44
2024/03/14 01:42:27;;;;;;;53.42;21.23;;;;;;;;;;7348197;19;20331;-42
2024/03/14 01:45:00;;;;;;;55.97;23.65;;;;;;;;;;7325642;19;20324;-42
2024/03/14 01:47:30;;;;;;;61.38;24.42;;;;;;;;;;7347820;19;20427;-44
2024/03/14 01:50:01;;;;;;;58.42;23.40;;;;;;;;;;7325619;19;20353;-46
2024/03/14 01:52:30;;;;;;;58.90;23.58;;;;;;;;;;7347241;19;20860;-45
2024/03/14 01:55:00;;;;;;;55.70;21.67;;;;;;;;;;7326094;19;20365;-47
2024/03/14 01:57:29;;;;;;;58.83;24.42;;;;;;;;;;7346613;19;20440;-42
2024/03/14 02:00:04;;;;;;;51.63;22.23;;;;;;;;;;7325146;19;20290;-42
2024/03/14 02:02:35;;;;;;;55.97;22.37;;;;;;;;;;7347759;19;20388;-44
2024/03/14 02:05:10;;;;;;;59.88;24.60;;;;;;;;;;7326131;19;20686;-42
2024/03/14 02:07:40;;;;;;;51.47;22.45;;;;;;;;;;7332426;19;20361;-47
2024/03/14 02:10:12;;;;;;;59.20;24.77;;;;;;;;;;7346462;19;20754;-42
2024/03/14 02:12:42;;;;;;;51.58;21.88;;;;;;;;;;7321846;19;20333;-44
2024/03/14 02:15:15;;;;;;;63.05;26.77;;;;;;;;;;7347480;19;20879;-43
2024/03/14 02:17:44;;;;;;;54.08;22.10;;;;;;;;;;7323930;19;20360;-43
2024/03/14 02:20:15;;;;;;;55.83;22.70;;;;;;;;;;7346120;19;20357;-43
2024/03/14 02:22:47;;;;;;;51.63;22.02;;;;;;;;;;7324278;19;20321;-44
2024/03/14 02:25:18;;;;;;;52.00;21.75;;;;;;;;;;7342863;19;20935;-41
2024/03/14 02:27:48;;;;;;;51.17;21.95;;;;;;;;;;7321576;19;20433;-42
2024/03/14 02:30:18;;;;;;;56.53;23.50;;;;;;;;;;7346210;19;20324;-42
2024/03/14 02:32:48;;;;;;;47.50;21.10;;;;;;;;;;7324269;19;20332;-42
2024/03/14 02:35:17;;;;;;;45.85;20.75;;;;;;;;;;7346936;19;20320;-42
2024/03/14 02:37:50;;;;;;;58.00;23.65;;;;;;;;;;7322737;19;20710;-43
2024/03/14 02:40:20;;;;;;;57.45;24.70;;;;;;;;;;7344869;19;20373;-42
2024/03/14 02:42:49;;;;;;;52.40;23.15;;;;;;;;;;7322755;19;20408;-43
2024/03/14 02:45:20;;;;;;;51.53;21.73;;;;;;;;;;7346205;19;20332;-42
2024/03/14 02:47:50;;;;;;;51.33;22.55;;;;;;;;;;7323306;19;20706;-42
2024/03/14 02:50:19;;;;;;;46.37;21.17;;;;;;;;;;7346029;19;20325;-42
2024/03/14 02:52:52;;;;;;;51.47;21.45;;;;;;;;;;7323297;19;20873;-41
2024/03/14 02:55:22;;;;;;;55.25;22.65;;;;;;;;;;7344724;19;20671;-44
2024/03/14 02:57:51;;;;;;;51.55;22.33;;;;;;;;;;7323751;19;20375;-43
2024/03/14 03:00:22;;;;;;;46.78;20.77;;;;;;;;;;7344854;19;20325;-46
2024/03/14 03:02:52;;;;;;;46.60;21.15;;;;;;;;;;7323454;19;20328;-44
2024/03/14 03:05:21;;;;;;;46.55;21.20;;;;;;;;;;7344916;19;20354;-42
2024/03/14 03:07:54;;;;;;;43.43;19.53;;;;;;;;;;7323112;19;20405;-47
2024/03/14 03:10:24;;;;;;;47.30;21.05;;;;;;;;;;7345495;19;20665;-42
2024/03/14 03:12:53;;;;;;;46.40;19.98;;;;;;;;;;7323413;19;20345;-42
2024/03/14 03:15:23;;;;;;;41.92;20.05;;;;;;;;;;7344613;19;20360;-47
2024/03/14 03:17:53;;;;;;;47.30;21.52;;;;;;;;;;7322403;19;20368;-44
2024/03/14 03:20:23;;;;;;;42.15;19.55;;;;;;;;;;7344107;19;20333;-42
2024/03/14 03:23:06;;;;;;;48.17;22.60;;;;;;;;;;7321664;19;20317;-44
2024/03/14 03:25:35;;;;;;;45.58;20.85;;;;;;;;;;7344807;19;20325;-42
2024/03/14 03:28:02;;;;;;;45.53;21.15;;;;;;;;;;7322079;19;20308;-41
2024/03/14 03:30:32;;;;;;;50.33;22.53;;;;;;;;;;7344853;19;20670;-43
2024/03/14 03:33:00;;;;;;;42.67;19.77;;;;;;;;;;7323219;19;20872;-42
2024/03/14 03:35:29;;;;;;;40.72;19.15;;;;;;;;;;7345134;19;20355;-47
2024/03/14 03:38:00;;;;;;;44.83;20.42;;;;;;;;;;7322094;19;20369;-42
2024/03/14 03:40:35;;;;;;;40.72;18.45;;;;;;;;;;7343749;19;20342;-42
2024/03/14 03:43:03;;;;;;;38.35;18.70;;;;;;;;;;7323263;19;20353;-43
2024/03/14 03:45:32;;;;;;;48.90;22.83;;;;;;;;;;7342137;19;20436;-48
2024/03/14 03:48:00;;;;;;;37.65;18.95;;;;;;;;;;7321810;19;21188;-49
2024/03/14 03:50:30;;;;;;;41.65;19.73;;;;;;;;;;7343501;19;20349;-52
2024/03/14 03:53:00;;;;;;;39.15;18.77;;;;;;;;;;7322378;19;20318;-45
2024/03/14 03:55:32;;;;;;;38.67;19.67;;;;;;;;;;7343701;19;20341;-47
2024/03/14 03:57:59;;;;;;;40.95;19.80;;;;;;;;;;7321532;19;20837;-44
2024/03/14 04:00:41;;;;;;;36.65;18.77;;;;;;;;;;7342164;19;20337;-47
2024/03/14 04:03:11;;;;;;;37.23;18.67;;;;;;;;;;7323155;19;20389;-46
2024/03/14 04:05:42;;;;;;;37.83;18.17;;;;;;;;;;7321605;19;20354;-49
2024/03/14 04:08:14;;;;;;;37.70;19.42;;;;;;;;;;7344280;19;20304;-51
2024/03/14 04:10:44;;;;;;;30.88;16.42;;;;;;;;;;7320316;19;20932;-43
2024/03/14 04:13:15;;;;;;;34.50;17.60;;;;;;;;;;7343317;19;20293;-45
2024/03/14 04:15:46;;;;;;;34.55;17.38;;;;;;;;;;7320861;19;20332;-44
2024/03/14 04:18:16;;;;;;;34.65;17.55;;;;;;;;;;7342924;19;20353;-42
2024/03/14 04:20:46;;;;;;;33.25;15.98;;;;;;;;;;7320477;19;20331;-45
2024/03/14 04:23:18;;;;;;;32.20;17.27;;;;;;;;;;7343468;19;20366;-45
2024/03/14 04:25:50;;;;;;;35.50;17.92;;;;;;;;;;7319990;19;20342;-43
2024/03/14 04:28:23;;;;;;;30.83;16.73;;;;;;;;;;7341542;19;20338;-42
2024/03/14 04:30:52;;;;;;;31.67;16.00;;;;;;;;;;7320639;19;20341;-43
2024/03/14 04:33:22;;;;;;;34.65;17.42;;;;;;;;;;7341577;19;20325;-44
2024/03/14 04:35:52;;;;;;;31.35;16.70;;;;;;;;;;7323419;19;20331;-46
2024/03/14 04:38:24;;;;;;;31.67;17.02;;;;;;;;;;7347367;19;20688;-43
2024/03/14 04:40:53;;;;;;;31.60;15.80;;;;;;;;;;7327326;19;20329;-42
2024/03/14 04:43:24;;;;;;;32.80;17.13;;;;;;;;;;7347229;19;20336;-43
2024/03/14 04:45:54;;;;;;;29.73;16.23;;;;;;;;;;7327849;19;20346;-43
2024/03/14 04:48:23;;;;;;;28.48;15.52;;;;;;;;;;7348837;19;20679;-42
2024/03/14 04:50:53;;;;;;;32.37;15.40;;;;;;;;;;7326209;19;20329;-45
2024/03/14 04:53:26;;;;;;;35.55;18.10;;;;;;;;;;7348281;19;20321;-44
2024/03/14 04:55:56;;;;;;;31.30;16.70;;;;;;;;;;7327579;19;20340;-49
2024/03/14 04:58:25;;;;;;;27.95;15.73;;;;;;;;;;7347705;19;20317;-44
2024/03/14 05:00:55;;;;;;;31.83;17.30;;;;;;;;;;7326361;19;20679;-44
2024/03/14 05:03:24;;;;;;;29.38;15.70;;;;;;;;;;7347409;19;20901;-42
2024/03/14 05:05:56;;;;;;;30.23;15.70;;;;;;;;;;7327094;19;20904;-43
2024/03/14 05:08:28;;;;;;;29.70;15.50;;;;;;;;;;7347525;19;20696;-44
2024/03/14 05:10:58;;;;;;;29.23;15.70;;;;;;;;;;7327926;19;20939;-45
2024/03/14 05:13:27;;;;;;;28.02;15.65;;;;;;;;;;7348296;19;20400;-46
2024/03/14 05:15:57;;;;;;;31.88;16.90;;;;;;;;;;7326460;19;20345;-43
2024/03/14 05:18:27;;;;;;;32.45;17.27;;;;;;;;;;7348708;19;20361;-44
2024/03/14 05:20:57;;;;;;;27.60;15.18;;;;;;;;;;7325799;19;20348;-44
2024/03/14 05:23:29;;;;;;;27.70;15.00;;;;;;;;;;7347773;19;20731;-46
2024/03/14 05:25:59;;;;;;;31.30;17.55;;;;;;;;;;7326628;19;20314;-47
2024/03/14 05:28:28;;;;;;;26.50;14.60;;;;;;;;;;7346611;19;20319;-41
2024/03/14 05:30:58;;;;;;;30.25;14.60;;;;;;;;;;7326086;19;20415;-46
2024/03/14 05:33:28;;;;;;;34.25;18.02;;;;;;;;;;7348672;19;20348;-48
2024/03/14 05:35:58;;;;;;;26.95;15.52;;;;;;;;;;7326485;19;20411;-45
2024/03/14 05:38:30;;;;;;;28.42;14.75;;;;;;;;;;7346978;19;20899;-45
2024/03/14 05:40:59;;;;;;;30.23;15.32;;;;;;;;;;7325942;19;20290;-46
2024/03/14 05:43:29;;;;;;;29.27;15.43;;;;;;;;;;7347368;19;20374;-42
2024/03/14 05:45:58;;;;;;;33.05;16.50;;;;;;;;;;7326088;19;20339;-42
2024/03/14 05:48:27;;;;;;;26.92;14.60;;;;;;;;;;7347094;19;20441;-47
2024/03/14 05:50:57;;;;;;;28.05;15.23;;;;;;;;;;7324751;19;20321;-48
2024/03/14 05:53:30;;;;;;;28.50;16.38;;;;;;;;;;7346953;19;20337;-43
2024/03/14 05:56:03;;;;;;;28.85;15.75;;;;;;;;;;7325720;19;20655;-44
2024/03/14 05:58:34;;;;;;;28.88;15.40;;;;;;;;;;7346394;19;20338;-46
2024/03/14 06:01:06;;;;;;;27.27;15.35;;;;;;;;;;7324962;19;20322;-43
2024/03/14 06:03:36;;;;;;;32.47;17.92;;;;;;;;;;7347559;19;20420;-44
2024/03/14 06:06:06;;;;;;;33.95;15.77;;;;;;;;;;7326267;19;20376;-49
2024/03/14 06:08:36;;;;;;;37.67;18.88;;;;;;;;;;7347545;19;20349;-46
2024/03/14 06:11:08;;;;;;;34.30;18.83;;;;;;;;;;7325550;19;20323;-46
2024/03/14 06:13:40;;;;;;;32.15;16.40;;;;;;;;;;7347286;19;20325;-46
2024/03/14 06:16:10;;;;;;;33.85;17.85;;;;;;;;;;7326458;19;20306;-44
2024/03/14 06:18:39;;;;;;;34.63;17.35;;;;;;;;;;7340278;19;20845;-42
2024/03/14 06:21:09;;;;;;;37.78;17.77;;;;;;;;;;7346944;19;20837;-42
2024/03/14 06:23:38;;;;;;;48.95;22.58;;;;;;;;;;7345944;19;20336;-47
2024/03/14 06:26:12;;;;;;;47.90;22.90;;;;;;;;;;7325676;19;20307;-49
2024/03/14 06:28:41;;;;;;;36.80;17.42;;;;;;;;;;7322086;19;20321;-46
2024/03/14 06:31:11;;;;;;;38.85;18.67;;;;;;;;;;7346016;19;20725;-45
2024/03/14 06:33:40;;;;;;;39.90;20.25;;;;;;;;;;7332408;19;20352;-48
2024/03/14 06:36:10;;;;;;;40.90;20.25;;;;;;;;;;7346331;19;20300;-48
2024/03/14 06:38:39;;;;;;;46.00;23.02;;;;;;;;;;7338622;19;20323;-46
2024/03/14 06:41:13;;;;;;;37.70;20.30;;;;;;;;;;7346447;19;20324;-43
2024/03/14 06:43:43;;;;;;;39.30;20.05;;;;;;;;;;7323237;19;20698;-44
2024/03/14 06:46:15;;;;;;;39.67;20.33;;;;;;;;;;7346211;19;20311;-48
2024/03/14 06:48:44;;;;;;;39.40;20.43;;;;;;;;;;7322907;19;20395;-50
2024/03/14 06:51:14;;;;;;;44.00;21.33;;;;;;;;;;7345375;19;20307;-44
2024/03/14 06:53:45;;;;;;;43.10;21.55;;;;;;;;;;7323198;19;20327;-47
2024/03/14 06:56:17;;;;;;;45.13;22.67;;;;;;;;;;7345583;19;20304;-45
2024/03/14 06:58:49;;;;;;;40.63;19.37;;;;;;;;;;7321114;19;20324;-47
2024/03/14 07:01:18;;;;;;;37.45;19.98;;;;;;;;;;7345513;19;20400;-47
2024/03/14 07:03:47;;;;;;;43.65;22.35;;;;;;;;;;7323007;19;20333;-42
2024/03/14 07:06:23;;;;;;;31.23;18.27;;;;;;;;;;7345556;19;20321;-48
2024/03/14 07:08:56;;;;;;;33.22;18.27;;;;;;;;;;7322325;19;20328;-47
2024/03/14 07:11:28;;;;;;;37.42;18.88;;;;;;;;;;7344457;19;20338;-45
2024/03/14 07:14:00;;;;;;;39.95;20.15;;;;;;;;;;7320491;19;20325;-43
2024/03/14 07:16:29;;;;;;;36.47;19.45;;;;;;;;;;7344851;19;20348;-45
2024/03/14 07:18:58;;;;;;;32.05;17.85;;;;;;;;;;7322460;19;20323;-44
2024/03/14 07:21:28;;;;;;;30.55;16.15;;;;;;;;;;7344462;19;20349;-44
2024/03/14 07:23:58;;;;;;;28.75;16.05;;;;;;;;;;7321657;19;20340;-47
2024/03/14 07:26:32;;;;;;;31.97;15.77;;;;;;;;;;7342908;19;20874;-42
2024/03/14 07:29:04;;;;;;;35.00;16.70;;;;;;;;;;7320202;19;20296;-47
2024/03/14 07:31:34;;;;;;;27.83;15.13;;;;;;;;;;7341986;19;20343;-39
2024/03/14 07:34:06;;;;;;;34.15;18.45;;;;;;;;;;7322613;19;20308;-42
2024/03/14 07:36:38;;;;;;;39.50;18.77;;;;;;;;;;7344579;19;20328;-42
2024/03/14 07:39:10;;;;;;;37.17;15.48;;;;;;;;;;7322609;19;20326;-43
2024/03/14 07:41:43;;;;;;;28.55;15.25;;;;;;;;;;7324800;19;20317;-40
2024/03/14 07:44:12;;;;;;;27.48;16.17;;;;;;;;;;7345286;19;20752;-42
2024/03/14 07:46:45;;;;;;;31.90;17.33;;;;;;;;;;7321772;19;20404;-41
2024/03/14 07:49:14;;;;;;;24.77;14.40;;;;;;;;;;7343927;19;20296;-44
2024/03/14 07:51:44;;;;;;;27.08;15.00;;;;;;;;;;7320735;19;20339;-43
2024/03/14 07:54:14;;;;;;;24.00;13.02;;;;;;;;;;7343992;19;20952;-43
2024/03/14 07:56:47;;;;;;;30.65;16.50;;;;;;;;;;7321551;19;20329;-43
2024/03/14 07:59:17;;;;;;;22.50;13.35;;;;;;;;;;7342496;19;20297;-42
2024/03/14 08:01:46;;;;;;;20.77;13.02;;;;;;;;;;7320803;19;20337;-46
2024/03/14 08:04:22;;;;;;;45.72;21.73;;;;;;;;;;7342066;19;20428;-43
2024/03/14 08:06:53;;;;;;;38.20;18.65;;;;;;;;;;7318438;19;20324;-40
2024/03/14 08:09:26;;;;;;;56.05;23.13;;;;;;;;;;7341174;19;20927;-41
2024/03/14 08:11:59;;;;;;;45.05;19.38;;;;;;;;;;7324626;19;20331;-42
2024/03/14 08:14:29;;;;;;;43.28;19.20;;;;;;;;;;7350490;19;20350;-43
2024/03/14 08:17:00;;;;;;;32.97;16.25;;;;;;;;;;7325110;19;21926;-44
2024/03/14 08:19:30;;;;;;;22.30;13.37;;;;;;;;;;7350022;19;20354;-43
2024/03/14 08:22:00;;;;;;;34.85;16.75;;;;;;;;;;7325214;19;20284;-46
2024/03/14 08:24:40;;;;;;;30.73;16.90;;;;;;;;;;7347664;19;20351;-44
2024/03/14 08:27:13;;;;;;;38.17;18.25;;;;;;;;;;7326496;19;20364;-43
2024/03/14 08:29:44;;;;;;;50.20;23.63;;;;;;;;;;7324808;19;20853;-44
2024/03/14 08:32:15;;;;;;;37.47;18.73;;;;;;;;;;7348869;19;20301;-41
2024/03/14 08:34:44;;;;;;;25.60;15.07;;;;;;;;;;7326867;19;20880;-49
2024/03/14 08:37:13;;;;;;;44.75;19.92;;;;;;;;;;7348284;19;20699;-45
2024/03/14 08:39:44;;;;;;;33.38;16.63;;;;;;;;;;7326269;19;20913;-43
2024/03/14 08:42:23;;;;;;;29.00;15.63;;;;;;;;;;7349444;19;20327;-44
2024/03/14 08:44:53;;;;;;;41.03;18.03;;;;;;;;;;7326981;19;20366;-42
2024/03/14 08:47:25;;;;;;;21.75;12.27;;;;;;;;;;7349050;19;20340;-43
2024/03/14 08:49:55;;;;;;;27.42;13.65;;;;;;;;;;7325693;19;20345;-41
2024/03/14 08:52:26;;;;;;;29.90;14.70;;;;;;;;;;7349000;19;20394;-44
2024/03/14 08:54:58;;;;;;;37.80;18.48;;;;;;;;;;7327412;19;20329;-44
2024/03/14 08:57:30;;;;;;;36.97;17.83;;;;;;;;;;7347878;19;20376;-44
2024/03/14 08:59:59;;;;;;;36.13;18.02;;;;;;;;;;7325697;19;20300;-49
2024/03/14 09:02:29;;;;;;;29.45;14.45;;;;;;;;;;7347989;19;20328;-45
2024/03/14 09:04:58;;;;;;;18.30;9.93;;;;;;;;;;7325283;19;20357;-41
2024/03/14 09:07:28;;;;;;;18.63;11.13;;;;;;;;;;7345973;19;20371;-44
2024/03/14 09:09:58;;;;;;;19.15;11.45;;;;;;;;;;7326159;19;20325;-45
2024/03/14 09:12:30;;;;;;;16.85;9.98;;;;;;;;;;7348871;19;20404;-41
2024/03/14 09:15:01;;;;;;;16.42;10.55;;;;;;;;;;7326475;19;20294;-48
2024/03/14 09:17:30;;;;;;;17.58;10.23;;;;;;;;;;7346824;19;20919;-42
2024/03/14 09:20:00;;;;;;;18.40;9.95;;;;;;;;;;7325523;19;20849;-41
2024/03/14 09:22:29;;;;;;;16.48;10.27;;;;;;;;;;7346518;19;20325;-41
2024/03/14 09:25:01;;;;;;;16.80;11.13;;;;;;;;;;7323547;19;20404;-43
2024/03/14 09:27:33;;;;;;;17.08;10.85;;;;;;;;;;7343240;19;20808;-43
2024/03/14 09:30:08;;;;;;;32.00;16.30;;;;;;;;;;7324634;19;20307;-41
2024/03/14 09:32:37;;;;;;;18.37;11.37;;;;;;;;;;7348103;19;20893;-44
2024/03/14 09:35:11;;;;;;;14.13;9.30;;;;;;;;;;7322983;19;20327;-44
2024/03/14 09:37:43;;;;;;;17.02;9.30;;;;;;;;;;7331884;19;20353;-41
2024/03/14 09:40:14;;;;;;;21.90;12.88;;;;;;;;;;7346950;19;20840;-41
2024/03/14 09:42:47;;;;;;;18.25;10.45;;;;;;;;;;7325139;19;20320;-44
2024/03/14 09:45:16;;;;;;;14.57;9.02;;;;;;;;;;7347800;19;20324;-46
2024/03/14 09:47:46;;;;;;;15.23;8.63;;;;;;;;;;7323979;19;20360;-44
2024/03/14 09:50:21;;;;;;;19.70;12.18;;;;;;;;;;7346284;19;20333;-46
2024/03/14 09:52:50;;;;;;;17.33;10.55;;;;;;;;;;7322181;19;20341;-43
2024/03/14 09:55:20;;;;;;;15.07;9.25;;;;;;;;;;7347823;19;20742;-41
2024/03/14 09:57:55;;;;;;;14.02;8.32;;;;;;;;;;7321083;19;20357;-43
2024/03/14 10:00:26;;;;;;;15.60;8.65;;;;;;;;;;7346009;19;20331;-42
2024/03/14 10:02:58;;;;;;;14.10;8.55;;;;;;;;;;7324272;19;20620;-47
2024/03/14 10:05:28;;;;;;;12.90;7.63;;;;;;;;;;7346397;19;20349;-42
2024/03/14 10:07:59;;;;;;;12.40;8.48;;;;;;;;;;7324070;19;20356;-48
2024/03/14 10:10:33;;;;;;;14.85;7.80;;;;;;;;;;7344600;19;20408;-41
2024/03/14 10:13:06;;;;;;;12.77;7.00;;;;;;;;;;7326278;19;20702;-43
2024/03/14 10:15:37;;;;;;;11.70;5.40;;;;;;;;;;7348376;19;20423;-42
2024/03/14 10:18:10;;;;;;;12.73;7.33;;;;;;;;;;7326471;19;20395;-43
2024/03/14 10:20:42;;;;;;;11.13;6.80;;;;;;;;;;7339134;19;20802;-46
2024/03/14 10:23:12;;;;;;;14.27;7.00;;;;;;;;;;7348048;19;20403;-44
2024/03/14 10:25:50;;;;;;;13.40;6.60;;;;;;;;;;7322805;19;20427;-48
2024/03/14 10:28:28;;;;;;;11.50;5.97;;;;;;;;;;7346379;19;20518;-43
2024/03/14 10:31:02;;;;;;;13.00;7.37;;;;;;;;;;7324789;19;20999;-42
2024/03/14 10:33:32;;;;;;;12.23;3.07;;;;;;;;;;7345006;19;20423;-47
2024/03/14 10:36:03;;;;;;;9.40;4.17;;;;;;;;;;7325219;19;20421;-48
2024/03/14 10:38:35;;;;;;;14.60;7.63;;;;;;;;;;7346816;19;20428;-49
2024/03/14 10:41:05;;;;;;;13.97;6.50;;;;;;;;;;7323318;19;20427;-42
2024/03/14 10:43:42;;;;;;;92.40;34.60;;;;;;;;;;7344255;19;20463;-43
2024/03/14 10:46:13;;;;;;;62.40;23.33;;;;;;;;;;7325651;19;20395;-42
2024/03/14 10:48:44;;;;;;;38.20;15.23;;;;;;;;;;7324981;19;20431;-43
2024/03/14 10:51:16;;;;;;;21.57;9.87;;;;;;;;;;7346701;19;20486;-44
2024/03/14 10:53:46;;;;;;;37.63;15.90;;;;;;;;;;7324458;19;20420;-42
2024/03/14 10:56:20;;;;;;;18.33;8.70;;;;;;;;;;7347050;19;20423;-44
2024/03/14 10:58:55;;;;;;;29.40;13.30;;;;;;;;;;7322573;19;20451;-43
2024/03/14 11:01:25;;;;;;;22.20;11.30;;;;;;;;;;7348022;19;20424;-43
2024/03/14 11:03:55;;;;;;;10.33;6.23;;;;;;;;;;7324715;19;20439;-44
2024/03/14 11:06:27;;;;;;;19.87;9.87;;;;;;;;;;7346218;19;20855;-47
2024/03/14 11:08:58;;;;;;;14.83;8.17;;;;;;;;;;7323902;19;20443;-42
2024/03/14 11:11:29;;;;;;;27.47;10.63;;;;;;;;;;7346409;19;20429;-43
2024/03/14 11:14:02;;;;;;;14.67;4.83;;;;;;;;;;7324016;19;20443;-46
2024/03/14 11:16:32;;;;;;;38.97;11.43;;;;;;;;;;7346625;19;20426;-43
2024/03/14 11:19:03;;;;;;;17.67;8.33;;;;;;;;;;7323775;19;21031;-44
2024/03/14 11:21:34;;;;;;;32.33;12.80;;;;;;;;;;7345721;19;20894;-47
2024/03/14 11:24:05;;;;;;;18.70;7.13;;;;;;;;;;7323937;19;20395;-42
2024/03/14 11:26:36;;;;;;;11.40;5.30;;;;;;;;;;7343472;19;20434;-47
2024/03/14 11:29:09;;;;;;;12.30;6.50;;;;;;;;;;7323296;19;20438;-43
2024/03/14 11:31:41;;;;;;;18.57;8.23;;;;;;;;;;7345701;19;20432;-43
2024/03/14 11:34:16;;;;;;;9.80;5.37;;;;;;;;;;7325295;19;20395;-41
2024/03/14 11:36:46;;;;;;;13.00;6.80;;;;;;;;;;7323220;19;20444;-43
2024/03/14 11:39:19;;;;;;;22.03;8.20;;;;;;;;;;7346294;19;20431;-42
2024/03/14 11:41:49;;;;;;;8.10;5.20;;;;;;;;;;7323067;19;20457;-42
2024/03/14 11:44:22;;;;;;;9.47;5.10;;;;;;;;;;7347131;19;20434;-43
2024/03/14 11:46:54;;;;;;;16.17;5.93;;;;;;;;;;7329926;19;20963;-46
2024/03/14 11:49:25;;;;;;;6.57;3.70;;;;;;;;;;7353247;19;20431;-43
2024/03/14 11:51:55;;;;;;;10.23;4.50;;;;;;;;;;7330375;19;20420;-44
2024/03/14 11:54:24;;;;;;;8.33;4.30;;;;;;;;;;7350680;19;20420;-47
2024/03/14 11:56:54;;;;;;;8.53;4.43;;;;;;;;;;7329704;19;20462;-43
2024/03/14 11:59:24;;;;;;;8.70;4.73;;;;;;;;;;7352165;19;20455;-46
2024/03/14 12:01:54;;;;;;;7.93;4.33;;;;;;;;;;7329201;19;20464;-47
2024/03/14 12:04:31;;;;;;;6.53;3.43;;;;;;;;;;7352019;19;20441;-48
2024/03/14 12:07:03;;;;;;;6.63;3.90;;;;;;;;;;7330365;19;20391;-45
2024/03/14 12:09:33;;;;;;;12.40;5.53;;;;;;;;;;7351163;19;20798;-45
2024/03/14 12:12:03;;;;;;;8.60;4.87;;;;;;;;;;7330264;19;20416;-45
2024/03/14 12:14:35;;;;;;;10.53;4.63;;;;;;;;;;7351039;19;20426;-48
2024/03/14 12:17:05;;;;;;;8.43;4.07;;;;;;;;;;7326582;19;20828;-41
2024/03/14 12:19:34;;;;;;;9.80;4.77;;;;;;;;;;7351235;19;20446;-43
2024/03/14 12:22:03;;;;;;;10.23;4.03;;;;;;;;;;7330033;19;20406;-42
2024/03/14 12:24:33;;;;;;;11.73;4.80;;;;;;;;;;7350870;19;20448;-43
2024/03/14 12:27:03;;;;;;;10.90;3.90;;;;;;;;;;7327268;19;20399;-45
2024/03/14 12:29:37;;;;;;;5.57;2.47;;;;;;;;;;7349569;19;20801;-46
2024/03/14 12:32:09;;;;;;;7.43;4.53;;;;;;;;;;7330354;19;20403;-44
2024/03/14 12:34:38;;;;;;;7.73;4.17;;;;;;;;;;7351176;19;20449;-43
2024/03/14 12:37:12;;;;;;;9.53;5.00;;;;;;;;;;7328193;19;20474;-44
2024/03/14 12:39:48;;;;;;;7.73;4.40;;;;;;;;;;7328312;19;21268;-45
2024/03/14 12:42:18;;;;;;;9.73;4.40;;;;;;;;;;7347192;19;20423;-48
2024/03/14 12:44:50;;;;;;;9.23;4.27;;;;;;;;;;7327738;19;20526;-48
2024/03/14 12:47:20;;;;;;;15.37;4.77;;;;;;;;;;7350478;19;20902;-44
2024/03/14 12:49:52;;;;;;;9.20;4.50;;;;;;;;;;7327862;19;20507;-48
2024/03/14 12:52:22;;;;;;;11.13;5.17;;;;;;;;;;7351196;19;20466;-43
2024/03/14 12:54:52;;;;;;;8.90;4.70;;;;;;;;;;7328795;19;20427;-44
2024/03/14 12:57:23;;;;;;;8.80;4.40;;;;;;;;;;7348347;19;21809;-42
2024/03/14 12:59:56;;;;;;;7.00;3.27;;;;;;;;;;7323876;19;20434;-44
2024/03/14 13:02:25;;;;;;;8.63;4.47;;;;;;;;;;7348564;19;20413;-45
2024/03/14 13:04:55;;;;;;;12.07;5.70;;;;;;;;;;7327580;19;20422;-47
2024/03/14 13:07:25;;;;;;;8.77;4.50;;;;;;;;;;7347861;19;20438;-50
2024/03/14 13:10:15;;;;;;;6.20;3.83;;;;;;;;;;7325837;19;20504;-42
2024/03/14 13:12:57;;;;;;;16.30;8.87;;;;;;;;;;7326101;19;20427;-42
2024/03/14 13:15:31;;;;;;;7.20;4.00;;;;;;;;;;7348872;19;20423;-50
2024/03/14 13:18:04;;;;;;;6.80;4.17;;;;;;;;;;7324803;19;20427;-44
2024/03/14 13:20:35;;;;;;;7.67;3.33;;;;;;;;;;7347060;19;20411;-42
2024/03/14 13:23:06;;;;;;;5.60;2.80;;;;;;;;;;7328731;19;20414;-46
2024/03/14 13:25:36;;;;;;;8.05;4.00;;;;;;;;;;7346592;19;20325;-43
2024/03/14 13:28:07;;;;;;;8.60;3.60;;;;;;;;;;7324715;19;20228;-46
2024/03/14 13:30:40;;;;;;;7.30;3.50;;;;;;;;;;7348883;19;20431;-45
2024/03/14 13:33:14;;;;;;;7.20;3.97;;;;;;;;;;7328822;19;20778;-47
2024/03/14 13:35:49;;;;;;;6.50;3.80;;;;;;;;;;7324011;19;20498;-44
2024/03/14 13:38:18;;;;;;;6.37;2.40;;;;;;;;;;7348510;19;20478;-43
2024/03/14 13:40:51;;;;;;;14.33;4.00;;;;;;;;;;7326832;19;20511;-46
2024/03/14 13:43:20;;;;;;;9.90;4.53;;;;;;;;;;7349236;19;20413;-45
2024/03/14 13:45:57;;;;;;;5.47;2.80;;;;;;;;;;7324816;19;20439;-43
2024/03/14 13:48:28;;;;;;;7.63;4.10;;;;;;;;;;7346139;19;20440;-43
2024/03/14 13:50:58;;;;;;;6.27;3.77;;;;;;;;;;7325433;19;20439;-48
2024/03/14 13:53:28;;;;;;;7.23;3.50;;;;;;;;;;7347543;19;20423;-43
2024/03/14 13:56:00;;;;;;;9.50;4.13;;;;;;;;;;7326868;19;20506;-45
2024/03/14 13:58:35;;;;;;;7.20;4.20;;;;;;;;;;7348414;19;20425;-44
2024/03/14 14:01:21;;;;;;;6.70;4.07;;;;;;;;;;7325700;19;20452;-42
2024/03/14 14:03:53;;;;;;;13.13;2.43;;;;;;;;;;7326930;19;20431;-47
2024/03/14 14:06:24;;;;;;;8.70;4.60;;;;;;;;;;7348589;19;20448;-43
2024/03/14 14:08:55;;;;;;;6.20;4.10;;;;;;;;;;7324667;19;20431;-45
2024/03/14 14:11:25;;;;;;;9.40;5.27;;;;;;;;;;7348008;19;20420;-43
2024/03/14 14:13:55;;;;;;;7.20;3.67;;;;;;;;;;7326154;19;20427;-46
2024/03/14 14:16:27;;;;;;;6.33;3.67;;;;;;;;;;7348908;19;20462;-47
2024/03/14 14:18:56;;;;;;;7.30;3.90;;;;;;;;;;7325359;19;20423;-43
2024/03/14 14:21:27;;;;;;;7.30;4.20;;;;;;;;;;7346926;19;20430;-44
2024/03/14 14:23:57;;;;;;;6.87;4.37;;;;;;;;;;7326081;19;20821;-52
2024/03/14 14:26:26;;;;;;;5.57;2.87;;;;;;;;;;7344591;19;20458;-47
2024/03/14 14:28:57;;;;;;;8.07;4.10;;;;;;;;;;7325094;19;20435;-46
2024/03/14 14:31:29;;;;;;;8.67;4.90;;;;;;;;;;7348393;19;20420;-45
2024/03/14 14:33:59;;;;;;;8.10;4.00;;;;;;;;;;7325837;19;21015;-50
2024/03/14 14:36:28;;;;;;;10.90;4.90;;;;;;;;;;7347068;19;21118;-46
2024/03/14 14:38:59;;;;;;;9.00;4.40;;;;;;;;;;7323726;19;20450;-49
2024/03/14 14:41:29;;;;;;;9.75;4.55;;;;;;;;;;7345124;19;20392;-48
2024/03/14 14:43:59;;;;;;;7.55;4.50;;;;;;;;;;7323891;19;20340;-46
2024/03/14 14:46:31;;;;;;;10.73;5.50;;;;;;;;;;7345293;19;20321;-49